Time;durP1;ratioP1;P1;durP2;ratioP2;P2;SDS_P1;SDS_P2;PMS_P1;PMS_P2;Temp;Humidity;BMP_temperature;BMP_pressure;BME280_temperature;BME280_humidity;BME280_pressure;Samples;Min_cycle;Max_cycle;Signal;HPM_P1;HPM_P2
2021/12/16 00:01:51;;;;;;;8.45;3.60;;;17.10;95.50;;;;;;1989548;28;20147;-76
2021/12/16 00:07:05;;;;;;;7.13;4.53;;;17.10;95.70;;;;;;1988964;28;20198;-76
2021/12/16 00:07:55;;;;;;;8.13;3.20;;;17.10;95.40;;;;;;1988710;28;20604;-76
2021/12/16 00:08:59;;;;;;;5.97;2.92;;;17.10;95.60;;;;;;1988887;28;20182;-76
2021/12/16 00:11:13;;;;;;;6.70;3.42;;;17.10;95.70;;;;;;1988934;28;20202;-75
2021/12/16 00:32:17;;;;;;;5.95;3.75;;;17.10;95.70;;;;;;1988823;28;20174;-74
2021/12/16 00:33:40;;;;;;;5.20;3.35;;;17.10;95.60;;;;;;1988651;28;20175;-74
2021/12/16 00:34:39;;;;;;;7.90;3.60;;;17.10;95.90;;;;;;1988218;28;20181;-76
2021/12/16 00:35:40;;;;;;;8.10;3.90;;;17.10;95.90;;;;;;1988468;28;20623;-75
2021/12/16 00:36:41;;;;;;;7.25;3.60;;;17.10;95.70;;;;;;1987970;28;20441;-75
2021/12/16 00:37:39;;;;;;;6.90;3.70;;;17.10;95.80;;;;;;1988179;28;20540;-76
2021/12/16 00:38:41;;;;;;;6.63;3.47;;;17.10;95.80;;;;;;1988698;28;20206;-76
2021/12/16 00:39:41;;;;;;;7.50;3.97;;;17.20;95.60;;;;;;1988590;28;20213;-76
2021/12/16 00:40:42;;;;;;;7.00;3.55;;;17.10;95.80;;;;;;1988852;28;20167;-74
2021/12/16 00:41:43;;;;;;;9.30;4.75;;;17.20;95.60;;;;;;1988945;28;20167;-75
2021/12/16 00:42:51;;;;;;;5.63;3.20;;;17.10;95.90;;;;;;1988119;28;20602;-75
2021/12/16 00:44:01;;;;;;;10.43;3.47;;;17.10;95.90;;;;;;1988398;28;20159;-75
2021/12/16 00:46:08;;;;;;;6.85;3.70;;;17.30;95.90;;;;;;1988693;28;20191;-76
2021/12/16 00:46:32;;;;;;;7.13;3.47;;;17.10;95.80;;;;;;1987973;28;20252;-75
2021/12/16 00:47:49;;;;;;;5.60;3.80;;;17.10;95.80;;;;;;1988763;28;20174;-75
2021/12/16 00:49:49;;;;;;;6.27;3.83;;;17.10;95.90;;;;;;1988335;28;20179;-75
2021/12/16 00:54:24;;;;;;;7.57;3.55;;;17.10;95.90;;;;;;1988675;28;20618;-75
2021/12/16 00:56:27;;;;;;;4.82;3.38;;;17.10;95.90;;;;;;1990292;28;20195;-73
2021/12/16 00:57:26;;;;;;;7.17;3.70;;;17.10;95.70;;;;;;1989937;28;20167;-74
2021/12/16 00:58:37;;;;;;;5.37;3.77;;;17.10;95.80;;;;;;1990073;28;20205;-74
2021/12/16 00:59:39;;;;;;;4.85;2.85;;;17.10;95.70;;;;;;1990204;28;20579;-74
2021/12/16 01:00:39;;;;;;;7.20;3.67;;;17.10;95.80;;;;;;1989540;28;20182;-75
2021/12/16 01:01:46;;;;;;;7.82;4.20;;;17.10;95.80;;;;;;1989519;28;20159;-75
2021/12/16 01:02:59;;;;;;;5.53;3.63;;;17.10;95.60;;;;;;1990161;28;20151;-74
2021/12/16 01:04:26;;;;;;;7.10;3.70;;;17.10;95.70;;;;;;1990204;28;20159;-75
2021/12/16 01:06:52;;;;;;;7.57;3.35;;;17.10;95.70;;;;;;1990235;28;20286;-74
2021/12/16 01:34:05;;;;;;;8.18;3.20;;;16.90;95.90;;;;;;1989723;28;20159;-76
2021/12/16 01:35:23;;;;;;;6.13;3.70;;;16.90;96.00;;;;;;1989784;28;20598;-75
2021/12/16 01:38:09;;;;;;;4.95;3.30;;;17.00;95.80;;;;;;1989323;28;20166;-75
2021/12/16 01:39:41;;;;;;;5.20;3.97;;;16.90;95.80;;;;;;1989712;28;20205;-76
2021/12/16 01:48:35;;;;;;;5.40;2.90;;;16.90;95.90;;;;;;1989151;28;20167;-76
2021/12/16 01:49:46;;;;;;;5.60;4.18;;;16.90;96.00;;;;;;1989402;28;20717;-75
2021/12/16 01:50:52;;;;;;;4.95;3.75;;;16.90;96.00;;;;;;1989834;28;20645;-76
2021/12/16 01:55:47;;;;;;;4.55;3.17;;;16.90;96.00;;;;;;1989222;28;20540;-77
2021/12/16 01:56:53;;;;;;;5.25;3.63;;;16.90;96.00;;;;;;1989354;28;20665;-75
2021/12/16 01:58:00;;;;;;;6.03;3.65;;;16.90;96.10;;;;;;1989645;28;20186;-75
2021/12/16 01:59:02;;;;;;;5.35;3.15;;;16.90;96.00;;;;;;1990428;28;20170;-75
2021/12/16 02:00:08;;;;;;;6.05;3.80;;;16.90;95.90;;;;;;1992499;28;20159;-76
2021/12/16 02:01:18;;;;;;;6.28;3.67;;;16.90;95.80;;;;;;1992577;28;20163;-76
2021/12/16 02:03:40;;;;;;;6.97;3.60;;;16.90;95.90;;;;;;1991807;28;20191;-75
2021/12/16 02:05:31;;;;;;;6.47;3.25;;;16.90;95.90;;;;;;1992012;28;20159;-77
2021/12/16 02:06:09;;;;;;;6.80;3.60;;;16.90;96.00;;;;;;1991060;28;20183;-75
2021/12/16 02:07:25;;;;;;;9.95;3.78;;;16.90;96.10;;;;;;1989187;28;20155;-77
2021/12/16 02:08:27;;;;;;;5.68;3.25;;;16.90;95.80;;;;;;1989844;28;20186;-76
2021/12/16 02:10:40;;;;;;;6.07;3.60;;;16.90;96.00;;;;;;1989635;28;20195;-76
2021/12/16 02:28:37;;;;;;;6.63;3.78;;;16.80;96.30;;;;;;1989657;28;20227;-76
2021/12/16 02:30:01;;;;;;;7.30;4.28;;;16.90;96.40;;;;;;1989434;28;20151;-76
2021/12/16 02:31:21;;;;;;;6.82;3.85;;;16.80;96.50;;;;;;1988709;28;20185;-75
2021/12/16 02:32:51;;;;;;;6.78;3.65;;;16.90;96.60;;;;;;1983444;28;20692;-76
2021/12/16 02:35:30;;;;;;;5.65;4.05;;;16.90;97.00;;;;;;1989498;28;20190;-75
2021/12/16 02:36:39;;;;;;;8.30;4.22;;;;;;;;;;1989339;28;20556;-75
2021/12/16 02:37:45;;;;;;;8.02;4.05;;;16.70;96.90;;;;;;1989443;28;20155;-76
2021/12/16 02:38:46;;;;;;;7.18;4.05;;;16.90;97.10;;;;;;1989579;28;20178;-76
2021/12/16 02:39:45;;;;;;;10.00;4.80;;;;;;;;;;1989419;28;20596;-76
2021/12/16 02:40:47;;;;;;;7.65;4.05;;;16.80;94.90;;;;;;1989418;28;20545;-76
2021/12/16 02:41:49;;;;;;;6.43;4.30;;;16.60;94.80;;;;;;1989327;28;20540;-75
2021/12/16 02:42:59;;;;;;;5.38;3.40;;;16.90;94.90;;;;;;1989362;28;20190;-76
2021/12/16 02:49:08;;;;;;;7.18;3.95;;;17.00;95.00;;;;;;1989360;28;20182;-75
2021/12/16 02:50:07;;;;;;;7.83;4.00;;;16.80;94.90;;;;;;1989321;28;20162;-76
2021/12/16 02:51:13;;;;;;;8.50;4.03;;;16.90;95.10;;;;;;1989426;28;20406;-76
2021/12/16 02:52:13;;;;;;;7.85;4.25;;;16.90;94.90;;;;;;1989346;28;20162;-76
2021/12/16 02:53:11;;;;;;;8.65;4.20;;;16.90;95.10;;;;;;1989276;28;20213;-76
2021/12/16 02:54:10;;;;;;;8.70;4.47;;;16.80;94.90;;;;;;1989298;28;20202;-75
2021/12/16 02:55:12;;;;;;;9.43;3.73;;;16.90;95.00;;;;;;1989156;28;20186;-76
2021/12/16 02:56:11;;;;;;;7.75;4.20;;;16.90;94.90;;;;;;1989277;28;20166;-76
2021/12/16 02:57:10;;;;;;;8.25;4.43;;;16.80;94.90;;;;;;1989224;28;20175;-75
2021/12/16 02:58:09;;;;;;;5.95;3.83;;;16.80;94.90;;;;;;1989185;28;20205;-77
2021/12/16 02:59:08;;;;;;;10.27;4.97;;;16.90;94.90;;;;;;1989254;28;20178;-74
2021/12/16 03:00:12;;;;;;;11.20;4.65;;;16.90;95.00;;;;;;1989246;28;20249;-77
2021/12/16 03:01:24;;;;;;;10.45;5.10;;;16.90;95.10;;;;;;1988683;28;20227;-75
2021/12/16 03:02:24;;;;;;;7.32;4.43;;;16.80;95.10;;;;;;1988763;28;20154;-76
2021/12/16 03:03:23;;;;;;;8.30;4.05;;;16.90;95.10;;;;;;1989217;28;20170;-74
2021/12/16 03:04:26;;;;;;;8.90;4.93;;;16.80;95.10;;;;;;1989344;28;20178;-75
2021/12/16 03:05:25;;;;;;;9.45;4.40;;;16.80;95.10;;;;;;1988671;28;20950;-74
2021/12/16 03:06:25;;;;;;;9.80;4.80;;;16.80;95.40;;;;;;1988680;28;20198;-74
2021/12/16 03:07:24;;;;;;;10.48;4.45;;;16.90;95.30;;;;;;1989075;28;20171;-73
2021/12/16 03:08:23;;;;;;;9.02;4.32;;;16.80;95.30;;;;;;1989228;28;20590;-75
2021/12/16 03:09:48;;;;;;;11.02;5.03;;;16.90;95.30;;;;;;1989160;28;20652;-75
2021/12/16 03:12:24;;;;;;;7.35;4.63;;;16.80;95.40;;;;;;1989198;28;20179;-75
2021/12/16 03:13:11;;;;;;;10.43;4.38;;;16.80;95.30;;;;;;1988971;28;20605;-75
2021/12/16 03:15:24;;;;;;;8.32;4.00;;;16.80;95.60;;;;;;1989271;28;20190;-76
2021/12/16 03:16:33;;;;;;;5.72;4.32;;;16.90;95.40;;;;;;1989094;28;20276;-78
2021/12/16 03:17:41;;;;;;;8.73;4.40;;;16.80;95.60;;;;;;1989172;28;20254;-75
2021/12/16 03:18:48;;;;;;;12.73;5.25;;;16.80;95.50;;;;;;1989103;28;20334;-74
2021/12/16 03:21:02;;;;;;;10.40;4.05;;;16.80;95.40;;;;;;1989134;28;20151;-76
2021/12/16 03:22:03;;;;;;;7.03;4.07;;;16.80;95.50;;;;;;1989171;28;20162;-76
2021/12/16 03:23:20;;;;;;;7.80;4.80;;;16.80;95.50;;;;;;1989093;28;20171;-74
2021/12/16 03:26:46;;;;;;;9.53;4.30;;;16.80;95.50;;;;;;1989116;28;20194;-77
2021/12/16 03:29:27;;;;;;;8.63;4.78;;;16.80;95.40;;;;;;1988979;28;20167;-75
2021/12/16 03:30:56;;;;;;;8.02;4.80;;;16.80;95.40;;;;;;1988715;28;20225;-76
2021/12/16 03:35:53;;;;;;;8.02;4.28;;;16.80;95.20;;;;;;1989127;28;20171;-76
2021/12/16 03:37:15;;;;;;;8.02;4.50;;;16.80;95.20;;;;;;1988926;28;20221;-74
2021/12/16 03:38:13;;;;;;;6.88;4.47;;;16.80;95.10;;;;;;1989018;28;20225;-74
2021/12/16 03:39:14;;;;;;;9.60;4.70;;;16.80;95.10;;;;;;1988962;28;20213;-76
2021/12/16 03:40:14;;;;;;;8.13;4.80;;;16.80;95.10;;;;;;1988996;28;20536;-75
2021/12/16 03:41:13;;;;;;;14.27;4.47;;;16.90;95.30;;;;;;1988979;28;20542;-74
2021/12/16 03:42:16;;;;;;;7.23;4.83;;;16.90;95.20;;;;;;1988981;28;20174;-77
2021/12/16 03:43:18;;;;;;;6.80;4.07;;;16.80;95.20;;;;;;1988815;28;20413;-75
2021/12/16 03:44:26;;;;;;;6.53;3.88;;;16.90;95.30;;;;;;1988812;28;20189;-76
2021/12/16 03:47:01;;;;;;;6.70;4.20;;;16.80;95.50;;;;;;1989090;28;20154;-77
2021/12/16 03:48:01;;;;;;;9.38;4.28;;;16.80;95.90;;;;;;1989036;28;20162;-76
2021/12/16 03:49:04;;;;;;;10.00;5.00;;;16.80;95.90;;;;;;1988853;28;20185;-76
2021/12/16 03:50:10;;;;;;;10.50;5.32;;;16.90;96.40;;;;;;1989118;28;20166;-76
2021/12/16 03:51:32;;;;;;;11.10;4.82;;;16.90;93.10;;;;;;1988901;28;20633;-76
2021/12/16 03:52:31;;;;;;;11.13;4.85;;;16.80;92.10;;;;;;1985458;28;20293;-75
2021/12/16 03:53:29;;;;;;;9.40;4.63;;;16.80;92.10;;;;;;1989074;28;20170;-75
2021/12/16 03:54:37;;;;;;;8.57;4.60;;;16.80;92.00;;;;;;1988971;28;20257;-75
2021/12/16 03:55:36;;;;;;;8.07;4.30;;;16.80;92.00;;;;;;1988900;28;20162;-75
2021/12/16 03:56:37;;;;;;;7.60;4.40;;;16.80;92.10;;;;;;1988715;28;20210;-75
2021/12/16 03:57:36;;;;;;;12.27;5.03;;;16.90;91.80;;;;;;1988950;28;20253;-76
2021/12/16 03:58:34;;;;;;;7.57;4.20;;;16.80;92.00;;;;;;1988851;28;20273;-76
2021/12/16 03:59:35;;;;;;;8.50;5.20;;;16.90;91.90;;;;;;1988978;28;20773;-75
2021/12/16 04:00:41;;;;;;;8.73;4.38;;;16.80;91.90;;;;;;1988914;28;20626;-75
2021/12/16 04:01:40;;;;;;;9.07;4.30;;;16.80;92.00;;;;;;1988861;28;20567;-75
2021/12/16 04:02:39;;;;;;;11.17;5.70;;;16.80;92.00;;;;;;1988829;28;20179;-75
2021/12/16 04:03:38;;;;;;;10.33;4.73;;;16.80;91.80;;;;;;1988924;28;20181;-76
2021/12/16 04:04:38;;;;;;;8.73;4.57;;;16.80;92.00;;;;;;1988952;28;20513;-75
2021/12/16 04:05:38;;;;;;;12.50;5.18;;;16.80;91.90;;;;;;1988795;28;20167;-76
2021/12/16 04:06:39;;;;;;;10.30;4.70;;;16.80;91.90;;;;;;1988987;28;20602;-75
2021/12/16 04:07:39;;;;;;;11.75;4.50;;;16.80;91.90;;;;;;1988732;28;20185;-75
2021/12/16 04:08:37;;;;;;;7.57;4.28;;;16.80;91.90;;;;;;1988728;28;20223;-75
2021/12/16 04:09:36;;;;;;;14.10;5.50;;;16.80;91.80;;;;;;1988221;28;20257;-76
2021/12/16 04:11:04;;;;;;;9.53;5.47;;;16.80;92.00;;;;;;1988368;28;20174;-75
2021/12/16 04:12:09;;;;;;;6.50;4.25;;;16.80;91.90;;;;;;1988928;28;20165;-75
2021/12/16 04:13:12;;;;;;;11.27;5.68;;;16.80;92.00;;;;;;1988775;28;20166;-76
2021/12/16 04:14:14;;;;;;;10.35;5.20;;;16.80;92.00;;;;;;1988793;28;20202;-76
2021/12/16 04:15:13;;;;;;;6.38;4.75;;;16.80;92.00;;;;;;1988856;28;20204;-75
2021/12/16 04:16:11;;;;;;;8.27;4.13;;;16.80;91.90;;;;;;1988891;28;20185;-75
2021/12/16 04:17:11;;;;;;;8.63;5.10;;;16.80;91.90;;;;;;1988813;28;20174;-76
2021/12/16 04:18:10;;;;;;;8.70;5.25;;;16.80;91.90;;;;;;1988810;28;20210;-76
2021/12/16 04:19:17;;;;;;;8.73;4.30;;;16.80;92.20;;;;;;1988122;28;20178;-76
2021/12/16 04:20:16;;;;;;;8.57;4.53;;;16.80;91.90;;;;;;1988240;28;20175;-75
2021/12/16 04:21:16;;;;;;;8.20;4.45;;;16.80;91.90;;;;;;1988069;28;20209;-75
2021/12/16 04:22:26;;;;;;;11.40;4.63;;;16.80;91.90;;;;;;1988355;28;20189;-76
2021/12/16 04:23:25;;;;;;;8.00;4.22;;;16.80;91.90;;;;;;1988328;28;20178;-76
2021/12/16 04:24:24;;;;;;;11.97;4.70;;;16.80;91.90;;;;;;1988406;28;20202;-76
2021/12/16 04:25:30;;;;;;;8.53;4.63;;;16.80;91.90;;;;;;1988810;28;20178;-76
2021/12/16 04:26:29;;;;;;;10.18;5.88;;;16.80;91.90;;;;;;1988218;28;20202;-75
2021/12/16 04:27:32;;;;;;;9.53;4.90;;;16.80;91.90;;;;;;1988165;28;20182;-76
2021/12/16 04:28:31;;;;;;;10.70;4.80;;;16.80;91.90;;;;;;1988820;28;20412;-76
2021/12/16 04:29:30;;;;;;;9.60;5.20;;;16.80;91.80;;;;;;1988268;28;20535;-75
2021/12/16 04:30:30;;;;;;;9.73;5.00;;;16.80;91.90;;;;;;1988095;28;20461;-75
2021/12/16 04:31:29;;;;;;;8.52;5.13;;;16.80;91.90;;;;;;1990069;28;20178;-76
2021/12/16 04:32:28;;;;;;;8.07;4.63;;;16.80;91.90;;;;;;1990255;28;20185;-75
2021/12/16 04:33:28;;;;;;;8.93;4.80;;;16.80;91.80;;;;;;1990409;28;20660;-76
2021/12/16 04:34:27;;;;;;;13.23;5.82;;;16.80;91.90;;;;;;1990439;28;20167;-75
2021/12/16 04:35:25;;;;;;;9.10;5.03;;;16.80;92.00;;;;;;1990475;28;20653;-76
2021/12/16 04:36:24;;;;;;;10.03;5.10;;;16.80;91.80;;;;;;1990180;28;20205;-75
2021/12/16 04:37:22;;;;;;;10.67;5.17;;;16.80;91.80;;;;;;1990287;28;20575;-76
2021/12/16 04:38:21;;;;;;;12.07;4.80;;;16.80;91.80;;;;;;1989629;28;20210;-76
2021/12/16 04:39:25;;;;;;;8.67;4.80;;;16.80;91.80;;;;;;1989758;28;20225;-75
2021/12/16 04:40:26;;;;;;;9.52;4.80;;;16.80;91.90;;;;;;1990351;28;20210;-76
2021/12/16 04:41:26;;;;;;;8.32;4.75;;;16.80;91.80;;;;;;1990223;28;20174;-76
2021/12/16 04:42:26;;;;;;;12.07;4.80;;;16.80;91.80;;;;;;1990216;28;20162;-76
2021/12/16 04:43:33;;;;;;;11.45;4.88;;;16.80;91.90;;;;;;1990018;28;20182;-76
2021/12/16 04:44:33;;;;;;;11.90;5.35;;;16.80;91.80;;;;;;1989518;28;20170;-76
2021/12/16 04:45:33;;;;;;;11.70;5.35;;;16.80;91.80;;;;;;1989574;28;20261;-76
2021/12/16 04:46:32;;;;;;;10.60;5.10;;;16.80;91.90;;;;;;1990066;28;20194;-75
2021/12/16 04:47:30;;;;;;;14.33;6.47;;;16.80;91.70;;;;;;1990136;28;20209;-76
2021/12/16 04:48:29;;;;;;;9.70;4.73;;;16.80;91.80;;;;;;1990044;28;20182;-76
2021/12/16 04:49:28;;;;;;;12.23;5.80;;;16.80;91.80;;;;;;1990127;28;20171;-74
2021/12/16 04:50:27;;;;;;;9.38;5.38;;;16.80;91.80;;;;;;1989603;28;20613;-75
2021/12/16 04:51:30;;;;;;;7.90;4.87;;;16.80;91.80;;;;;;1989640;28;20178;-75
2021/12/16 04:52:29;;;;;;;8.45;5.15;;;16.80;91.80;;;;;;1990071;28;20642;-76
2021/12/16 04:53:28;;;;;;;9.27;5.60;;;16.80;91.80;;;;;;1989446;28;20186;-75
2021/12/16 04:54:29;;;;;;;7.10;4.93;;;16.80;91.80;;;;;;1989628;28;20210;-75
2021/12/16 04:55:28;;;;;;;8.55;4.85;;;16.80;91.80;;;;;;1993294;28;20274;-75
2021/12/16 04:56:27;;;;;;;13.43;5.50;;;16.80;91.90;;;;;;1991240;28;20197;-75
2021/12/16 04:57:25;;;;;;;11.40;5.37;;;16.80;91.80;;;;;;1990726;28;20261;-75
2021/12/16 04:58:25;;;;;;;13.70;5.80;;;16.80;91.90;;;;;;1990648;28;20210;-76
2021/12/16 04:59:25;;;;;;;10.10;4.90;;;17.00;91.90;;;;;;1994181;28;20173;-73
2021/12/16 05:00:25;;;;;;;14.60;6.10;;;16.80;91.70;;;;;;1997436;28;20210;-74
2021/12/16 05:01:25;;;;;;;12.02;5.13;;;16.80;91.70;;;;;;1999182;28;20238;-73
2021/12/16 05:02:25;;;;;;;10.23;4.90;;;16.80;91.80;;;;;;1998999;28;20198;-74
2021/12/16 05:03:24;;;;;;;10.23;5.68;;;16.80;91.80;;;;;;1997569;28;20163;-75
2021/12/16 05:04:24;;;;;;;12.27;5.68;;;16.80;91.80;;;;;;1993303;28;20178;-74
2021/12/16 05:05:24;;;;;;;12.52;6.20;;;16.80;91.80;;;;;;1993164;28;20650;-75
2021/12/16 05:06:23;;;;;;;9.65;5.53;;;16.80;91.80;;;;;;1992849;28;20621;-75
2021/12/16 05:07:22;;;;;;;11.30;5.40;;;16.80;91.80;;;;;;1991783;28;20260;-75
2021/12/16 05:08:21;;;;;;;12.93;6.75;;;16.80;91.80;;;;;;1990120;28;20233;-76
2021/12/16 05:10:37;;;;;;;10.65;5.13;;;16.80;91.70;;;;;;1990226;28;20626;-76
2021/12/16 05:11:37;;;;;;;13.17;5.83;;;16.70;91.60;;;;;;1990141;28;20170;-75
2021/12/16 05:12:40;;;;;;;11.88;6.45;;;16.70;91.80;;;;;;1989957;28;20421;-75
2021/12/16 05:13:39;;;;;;;11.15;5.90;;;16.80;91.60;;;;;;1989303;28;20178;-75
2021/12/16 05:14:39;;;;;;;8.82;4.70;;;16.70;92.00;;;;;;1989395;28;20178;-76
2021/12/16 05:15:41;;;;;;;8.23;5.30;;;16.80;91.80;;;;;;1990045;28;20220;-75
2021/12/16 05:16:39;;;;;;;10.10;5.05;;;16.80;91.70;;;;;;1989810;28;20312;-76
2021/12/16 05:17:44;;;;;;;10.10;5.23;;;16.80;91.70;;;;;;1989976;28;20179;-76
2021/12/16 05:18:44;;;;;;;11.60;5.80;;;16.80;91.70;;;;;;1990116;28;20191;-75
2021/12/16 05:19:49;;;;;;;9.55;5.35;;;16.80;91.70;;;;;;1989854;28;20197;-75
2021/12/16 05:20:48;;;;;;;7.70;4.80;;;16.80;91.80;;;;;;1989988;28;20522;-76
2021/12/16 05:21:54;;;;;;;8.80;5.20;;;16.80;91.70;;;;;;1989824;28;20194;-75
2021/12/16 05:24:17;;;;;;;9.48;5.20;;;16.70;91.70;;;;;;1989681;28;20166;-75
2021/12/16 05:25:26;;;;;;;11.98;5.80;;;16.70;91.70;;;;;;1989241;28;20305;-76
2021/12/16 05:26:24;;;;;;;10.25;5.57;;;16.70;91.60;;;;;;1989437;28;20647;-76
2021/12/16 05:27:23;;;;;;;9.20;5.50;;;16.70;91.60;;;;;;1989895;28;20182;-76
2021/12/16 05:28:23;;;;;;;12.13;6.30;;;16.80;91.70;;;;;;1989939;28;20204;-76
2021/12/16 05:29:22;;;;;;;10.52;5.55;;;16.80;91.80;;;;;;1989996;28;20183;-76
2021/12/16 05:30:21;;;;;;;8.50;5.07;;;16.70;91.70;;;;;;1989679;28;20221;-75
2021/12/16 05:31:22;;;;;;;10.30;5.60;;;16.70;91.70;;;;;;1990080;28;20175;-75
2021/12/16 05:32:20;;;;;;;9.68;5.68;;;16.80;91.70;;;;;;1989932;28;20186;-76
2021/12/16 05:33:21;;;;;;;8.40;5.10;;;16.80;91.70;;;;;;1989410;28;20269;-75
2021/12/16 05:34:21;;;;;;;8.35;5.35;;;16.80;91.70;;;;;;1989320;28;20639;-76
2021/12/16 05:35:22;;;;;;;10.43;6.10;;;16.80;91.80;;;;;;1989659;28;20185;-76
2021/12/16 05:36:21;;;;;;;8.27;4.75;;;16.70;91.50;;;;;;1989693;28;20625;-75
2021/12/16 05:37:19;;;;;;;9.90;6.25;;;16.70;91.60;;;;;;1989768;28;20280;-76
2021/12/16 05:38:19;;;;;;;11.13;5.90;;;16.80;91.70;;;;;;1989748;28;20296;-76
2021/12/16 05:39:18;;;;;;;11.50;5.50;;;16.70;91.60;;;;;;1989740;28;20676;-75
2021/12/16 05:40:23;;;;;;;8.48;6.00;;;16.70;91.60;;;;;;1989758;28;20185;-76
2021/12/16 05:41:23;;;;;;;7.70;4.75;;;16.80;91.70;;;;;;1989859;28;20158;-76
2021/12/16 05:42:22;;;;;;;12.48;5.55;;;16.70;91.60;;;;;;1988803;28;20257;-76
2021/12/16 05:43:24;;;;;;;10.67;5.40;;;16.80;91.70;;;;;;1989825;28;20241;-77
2021/12/16 05:44:22;;;;;;;11.48;5.65;;;16.70;91.70;;;;;;1989867;28;20191;-76
2021/12/16 05:45:23;;;;;;;9.43;5.53;;;16.70;91.60;;;;;;1989162;28;20174;-74
2021/12/16 05:46:23;;;;;;;11.98;5.10;;;16.80;91.70;;;;;;1989140;28;20193;-75
2021/12/16 05:47:22;;;;;;;10.18;5.32;;;16.70;91.70;;;;;;1990012;28;20181;-74
2021/12/16 05:48:24;;;;;;;10.57;4.97;;;16.80;91.70;;;;;;1989827;28;20178;-76
2021/12/16 05:49:23;;;;;;;11.00;5.35;;;16.70;91.80;;;;;;1989681;28;20558;-75
2021/12/16 05:50:25;;;;;;;12.20;6.20;;;16.70;91.70;;;;;;1989696;28;20186;-75
2021/12/16 05:51:30;;;;;;;12.88;6.40;;;16.70;91.70;;;;;;1989755;28;20182;-76
2021/12/16 05:52:29;;;;;;;8.85;5.43;;;16.70;91.70;;;;;;1989765;28;20173;-75
2021/12/16 05:53:28;;;;;;;9.53;5.67;;;16.80;91.70;;;;;;1989816;28;20189;-76
2021/12/16 05:54:27;;;;;;;8.45;4.93;;;16.80;91.70;;;;;;1989681;28;20634;-75
2021/12/16 05:55:27;;;;;;;10.43;5.50;;;16.70;91.70;;;;;;1989819;28;20268;-75
2021/12/16 05:56:26;;;;;;;9.25;5.25;;;16.70;91.50;;;;;;1989621;28;20204;-76
2021/12/16 05:57:24;;;;;;;10.97;6.00;;;16.70;91.50;;;;;;1989835;28;20257;-75
2021/12/16 05:58:24;;;;;;;10.40;5.63;;;16.70;91.60;;;;;;1989681;28;20205;-75
2021/12/16 05:59:23;;;;;;;10.25;5.97;;;16.80;91.70;;;;;;1989706;28;20167;-75
2021/12/16 06:00:26;;;;;;;9.93;5.67;;;16.70;91.60;;;;;;1989839;28;20171;-76
2021/12/16 06:01:30;;;;;;;9.07;5.32;;;16.80;91.70;;;;;;1989677;28;20147;-75
2021/12/16 06:02:29;;;;;;;9.60;5.30;;;16.80;91.70;;;;;;1989874;28;20155;-76
2021/12/16 06:03:32;;;;;;;10.85;5.10;;;16.80;91.70;;;;;;1989656;28;20167;-75
2021/12/16 06:04:33;;;;;;;10.50;6.10;;;16.70;91.70;;;;;;1989727;28;20210;-75
2021/12/16 06:05:32;;;;;;;12.68;5.63;;;16.70;91.60;;;;;;1988982;28;20182;-75
2021/12/16 06:06:31;;;;;;;9.75;5.70;;;16.70;91.60;;;;;;1988932;28;20277;-75
2021/12/16 06:07:30;;;;;;;10.82;5.88;;;16.80;91.80;;;;;;1989702;28;20488;-74
2021/12/16 06:08:28;;;;;;;10.23;5.70;;;16.70;91.60;;;;;;1989615;28;20333;-75
2021/12/16 06:09:27;;;;;;;10.13;5.33;;;16.70;91.70;;;;;;1989581;28;20202;-75
2021/12/16 06:11:03;;;;;;;12.17;6.10;;;16.70;91.70;;;;;;1989651;28;20174;-75
2021/12/16 06:11:51;;;;;;;10.80;5.70;;;16.70;91.70;;;;;;1989356;28;20217;-76
2021/12/16 06:12:49;;;;;;;12.02;5.75;;;16.70;91.60;;;;;;1989507;28;20636;-75
2021/12/16 06:14:07;;;;;;;10.40;5.33;;;16.70;91.70;;;;;;1989678;28;20175;-72
2021/12/16 06:15:34;;;;;;;10.88;4.82;;;16.70;91.80;;;;;;1988813;28;20230;-74
2021/12/16 06:27:06;;;;;;;14.90;5.78;;;16.70;91.90;;;;;;1988722;28;20212;-72
2021/12/16 06:28:06;;;;;;;10.30;6.20;;;16.70;92.00;;;;;;1988732;28;20229;-73
2021/12/16 06:29:05;;;;;;;11.05;5.28;;;16.70;91.90;;;;;;1989604;28;20534;-72
2021/12/16 06:30:07;;;;;;;12.30;5.33;;;16.70;91.90;;;;;;1989563;28;20218;-73
2021/12/16 06:31:06;;;;;;;10.05;4.80;;;16.70;92.00;;;;;;1989626;28;20179;-72
2021/12/16 06:32:05;;;;;;;7.90;4.43;;;16.70;91.90;;;;;;1988866;28;20183;-73
2021/12/16 06:33:06;;;;;;;10.20;4.70;;;16.70;91.90;;;;;;1988837;28;20257;-73
2021/12/16 06:34:05;;;;;;;14.55;5.30;;;16.80;91.90;;;;;;1989484;28;20182;-72
2021/12/16 06:35:06;;;;;;;11.20;5.43;;;16.80;91.90;;;;;;1989442;28;20189;-72
2021/12/16 06:36:04;;;;;;;8.85;5.00;;;16.80;91.90;;;;;;1988660;28;20418;-73
2021/12/16 06:37:04;;;;;;;17.27;5.30;;;16.80;92.00;;;;;;1988718;28;20175;-74
2021/12/16 06:38:04;;;;;;;11.63;4.95;;;16.80;92.00;;;;;;1989231;28;20230;-73
2021/12/16 06:39:04;;;;;;;8.48;4.97;;;16.80;92.00;;;;;;1989435;28;20244;-74
2021/12/16 06:40:06;;;;;;;20.35;4.70;;;16.80;92.00;;;;;;1989232;28;20212;-74
2021/12/16 06:41:04;;;;;;;9.77;4.80;;;16.80;92.00;;;;;;1989577;28;20206;-73
2021/12/16 06:42:06;;;;;;;10.10;4.97;;;16.80;92.10;;;;;;1989585;28;20238;-75
2021/12/16 06:43:07;;;;;;;13.65;4.80;;;16.80;92.00;;;;;;1989455;28;20198;-75
2021/12/16 06:44:15;;;;;;;10.93;4.65;;;16.80;92.00;;;;;;1989522;28;20174;-74
2021/12/16 06:45:22;;;;;;;13.65;5.10;;;16.80;92.00;;;;;;1989417;28;20231;-74
2021/12/16 06:46:30;;;;;;;16.27;5.00;;;16.80;92.00;;;;;;1988805;28;20190;-74
2021/12/16 06:47:43;;;;;;;12.18;4.95;;;16.80;92.10;;;;;;1989009;28;20162;-74
2021/12/16 06:48:45;;;;;;;9.52;4.88;;;16.80;92.10;;;;;;1988659;28;20636;-74
2021/12/16 06:49:46;;;;;;;11.77;4.10;;;16.80;92.00;;;;;;1988900;28;20622;-78
2021/12/16 06:51:58;;;;;;;14.10;5.10;;;16.80;92.00;;;;;;1992075;28;20690;-76
2021/12/16 06:53:12;;;;;;;11.73;4.82;;;16.80;91.90;;;;;;1990226;28;20178;-74
2021/12/16 06:54:18;;;;;;;15.68;4.35;;;16.80;92.00;;;;;;1988354;28;20182;-74
2021/12/16 06:55:26;;;;;;;14.60;4.53;;;16.80;92.00;;;;;;1988682;28;20230;-75
2021/12/16 06:56:31;;;;;;;14.52;4.90;;;16.70;92.10;;;;;;1989305;28;20202;-74
2021/12/16 06:57:41;;;;;;;10.35;5.00;;;16.70;92.00;;;;;;1989674;28;20159;-74
2021/12/16 06:58:46;;;;;;;10.45;4.40;;;16.70;92.00;;;;;;1989355;28;20194;-74
2021/12/16 07:00:13;;;;;;;10.05;4.53;;;16.70;92.00;;;;;;1989443;28;20226;-75
2021/12/16 07:01:26;;;;;;;7.60;3.83;;;16.70;92.00;;;;;;1989314;28;20656;-75
2021/12/16 07:02:43;;;;;;;10.75;4.55;;;16.70;92.40;;;;;;1989271;28;20163;-75
2021/12/16 07:03:47;;;;;;;11.63;5.30;;;16.70;92.10;;;;;;1989309;28;20238;-75
2021/12/16 07:04:48;;;;;;;16.65;6.45;;;16.70;92.10;;;;;;1989675;28;20147;-74
2021/12/16 07:05:52;;;;;;;6.95;3.95;;;16.70;92.10;;;;;;1989449;28;20169;-74
2021/12/16 07:06:51;;;;;;;26.88;4.55;;;16.70;92.10;;;;;;1989247;28;20269;-74
2021/12/16 07:07:50;;;;;;;11.63;4.53;;;16.70;92.00;;;;;;1989444;28;20182;-75
2021/12/16 07:08:52;;;;;;;11.63;4.23;;;16.80;92.10;;;;;;1989399;28;20187;-74
2021/12/16 07:09:50;;;;;;;18.42;4.80;;;16.80;92.00;;;;;;1988660;28;20174;-74
2021/12/16 07:10:53;;;;;;;11.80;4.40;;;16.70;92.00;;;;;;1988727;28;20268;-74
2021/12/16 07:11:57;;;;;;;7.93;4.07;;;16.70;91.90;;;;;;1989468;28;20163;-75
2021/12/16 07:13:00;;;;;;;13.07;5.38;;;16.70;92.00;;;;;;1989296;28;20190;-74
2021/12/16 07:14:01;;;;;;;12.15;4.57;;;16.70;92.00;;;;;;1989221;28;20556;-74
2021/12/16 07:14:59;;;;;;;9.90;4.63;;;16.70;92.00;;;;;;1988552;28;20194;-75
2021/12/16 07:15:58;;;;;;;7.03;4.47;;;16.80;92.10;;;;;;1988537;28;20603;-74
2021/12/16 07:16:58;;;;;;;9.40;3.53;;;16.70;92.00;;;;;;1989152;28;20220;-74
2021/12/16 07:17:57;;;;;;;10.88;4.53;;;16.70;92.00;;;;;;1989390;28;20175;-75
2021/12/16 07:18:58;;;;;;;11.52;4.20;;;16.70;92.00;;;;;;1989189;28;20181;-74
2021/12/16 07:19:57;;;;;;;6.47;3.75;;;16.70;92.10;;;;;;1989113;28;20179;-73
2021/12/16 07:20:58;;;;;;;10.23;3.83;;;16.80;92.10;;;;;;1989192;28;20174;-74
2021/12/16 07:21:56;;;;;;;18.38;4.25;;;16.70;92.00;;;;;;1989181;28;20540;-74
2021/12/16 07:22:57;;;;;;;9.00;3.93;;;16.70;92.00;;;;;;1989218;28;20265;-74
2021/12/16 07:23:55;;;;;;;8.82;4.53;;;16.70;92.00;;;;;;1989242;28;20261;-73
2021/12/16 07:24:54;;;;;;;6.50;3.30;;;16.70;92.00;;;;;;1989126;28;20190;-73
2021/12/16 07:25:53;;;;;;;11.20;4.80;;;16.70;92.00;;;;;;1989212;28;20589;-74
2021/12/16 07:26:51;;;;;;;16.13;4.40;;;16.70;92.00;;;;;;1989159;28;20190;-74
2021/12/16 07:27:51;;;;;;;6.30;2.93;;;16.70;92.00;;;;;;1988553;28;20265;-74
2021/12/16 07:28:49;;;;;;;9.68;4.20;;;16.70;91.90;;;;;;1988649;28;20257;-75
2021/12/16 07:29:48;;;;;;;6.10;3.80;;;16.70;92.00;;;;;;1988727;28;20657;-74
2021/12/16 07:30:47;;;;;;;5.20;3.47;;;16.70;92.00;;;;;;1989501;28;20167;-74
2021/12/16 07:31:46;;;;;;;11.88;4.18;;;16.70;91.90;;;;;;1989173;28;20178;-74
2021/12/16 07:32:44;;;;;;;7.33;3.50;;;16.70;92.10;;;;;;1989162;28;20174;-74